Labelle, Florida
Current Conditions -  °F | °C
As of 10:53 PM on Wednesday 28 Jan 2015 (Local Time) from KRSW Reporting Station
Clear Clear  
Wind Chill: 45°   Ceiling: Unl
Heat Index: 48°   Visibility: 10mi
Dew Point: 37°   Wind: 7mph
Humidity: 66%   Direction: 50°NE
Pressure: 30.25"   Gusts: NA
Location:  26.7507°N, 81.4305°W
Report Text: KRSW 290353Z 05006KT 10SM CLR 09/03 A3025 RMK AO2 SLP240 T00890028
Loading
Personal Weather Stations






























Interactive Weather Map New forecast layout! Learn more

10-Day Weather Forecast

Advertisements
Track Severe Weather on mobile